TimeCDT,TemperatureF,Dew PointF,Humidity,Sea Level PressureIn,VisibilityMPH,Wind Direction,Wind SpeedMPH,Gust SpeedMPH,PrecipitationIn,Events,Conditions,WindDirDegrees,DateUTC
12:52 AM,35.1,32.0,89,30.10,6.0,East,9.2,-,0.00,Rain,Light Rain,80,2012-10-29 05:52:00
1:52 AM,35.1,32.0,89,30.09,5.0,East,12.7,-,0.00,,Overcast,90,2012-10-29 06:52:00
2:09 AM,33.8,32.0,93,30.03,5.0,East,9.2,-,N/A,,Overcast,80,2012-10-29 07:09:00
2:52 AM,34.0,32.0,92,30.09,6.0,East,8.1,-,N/A,,Overcast,90,2012-10-29 07:52:00
3:52 AM,33.1,30.9,92,30.08,5.0,East,9.2,-,N/A,,Scattered Clouds,80,2012-10-29 08:52:00
4:52 AM,30.9,30.0,96,30.09,5.0,ENE,8.1,-,N/A,,Partly Cloudy,60,2012-10-29 09:52:00
5:52 AM,30.0,28.9,96,30.09,4.0,ENE,8.1,-,N/A,,Partly Cloudy,60,2012-10-29 10:52:00
6:52 AM,30.0,28.9,96,30.09,4.0,NE,8.1,-,N/A,,Overcast,50,2012-10-29 11:52:00
7:52 AM,28.9,28.0,96,30.10,4.0,ENE,8.1,-,N/A,,Clear,60,2012-10-29 12:52:00
8:52 AM,28.9,27.0,92,30.11,3.0,ENE,8.1,-,N/A,,Partly Cloudy,60,2012-10-29 13:52:00
9:52 AM,30.9,30.0,96,30.11,4.0,East,4.6,-,N/A,,Overcast,90,2012-10-29 14:52:00
10:52 AM,35.1,32.0,89,30.11,6.0,East,5.8,-,N/A,,Overcast,80,2012-10-29 15:52:00
11:52 AM,39.0,34.0,82,30.10,9.0,East,5.8,-,N/A,,Partly Cloudy,100,2012-10-29 16:52:00
12:52 PM,42.1,35.1,76,30.10,10.0,Calm,Calm,-,N/A,,Scattered Clouds,0,2012-10-29 17:52:00
1:52 PM,48.9,35.1,59,30.07,10.0,SE,8.1,17.3,N/A,,Partly Cloudy,140,2012-10-29 18:52:00
2:52 PM,51.1,36.0,56,30.06,10.0,SSE,8.1,-,N/A,,Mostly Cloudy,150,2012-10-29 19:52:00
3:52 PM,53.1,36.0,52,30.04,10.0,SE,6.9,-,N/A,,Overcast,140,2012-10-29 20:52:00
4:52 PM,53.6,35.6,51,30.00,10.0,SE,8.1,-,N/A,,Mostly Cloudy,140,2012-10-29 21:52:00
5:52 PM,50.0,36.0,59,30.04,10.0,ESE,6.9,-,N/A,,Partly Cloudy,110,2012-10-29 22:52:00
6:52 PM,48.9,36.0,61,30.04,10.0,East,8.1,-,N/A,,Overcast,80,2012-10-29 23:52:00
7:52 PM,48.0,36.0,63,30.05,10.0,East,6.9,-,N/A,,Overcast,100,2012-10-30 00:52:00
8:52 PM,48.9,35.1,59,30.05,10.0,ESE,8.1,-,N/A,,Overcast,110,2012-10-30 01:52:00
9:52 PM,46.9,37.0,68,30.06,10.0,East,10.4,-,0.00,,Overcast,90,2012-10-30 02:52:00
10:52 PM,43.0,39.0,86,30.06,10.0,ENE,8.1,-,0.01,Rain,Light Rain,70,2012-10-30 03:52:00
11:52 PM,42.1,39.0,89,30.06,10.0,ENE,8.1,-,0.02,,Overcast,70,2012-10-30 04:52:00